sensor_id;sensor_type;location;lat;lon;timestamp;temperature;humidity
65040;HTU21D;51606;45.000;38.612;2023-04-06T04:46:20;10.79;73.77
65040;HTU21D;51606;45.000;38.612;2023-04-06T04:48:46;10.84;73.82
65040;HTU21D;51606;45.000;38.612;2023-04-06T04:51:13;10.87;73.83
65040;HTU21D;51606;45.000;38.612;2023-04-06T04:53:59;10.92;73.88
65040;HTU21D;51606;45.000;38.612;2023-04-06T05:04:09;10.98;73.62
65040;HTU21D;51606;45.000;38.612;2023-04-06T05:06:37;11.01;73.71
65040;HTU21D;51606;45.000;38.612;2023-04-06T05:09:03;11.05;73.78
65040;HTU21D;51606;45.000;38.612;2023-04-06T05:11:30;11.10;73.82
65040;HTU21D;51606;45.000;38.612;2023-04-06T05:14:00;11.16;73.85
65040;HTU21D;51606;45.000;38.612;2023-04-06T05:16:26;11.25;73.83
65040;HTU21D;51606;45.000;38.612;2023-04-06T05:18:53;11.32;73.79
65040;HTU21D;51606;45.000;38.612;2023-04-06T05:21:20;11.43;73.75
65040;HTU21D;51606;45.000;38.612;2023-04-06T05:23:59;11.52;73.68
65040;HTU21D;51606;45.000;38.612;2023-04-06T05:26:30;11.60;73.64
65040;HTU21D;51606;45.000;38.612;2023-04-06T05:29:03;11.72;73.60
65040;HTU21D;51606;45.000;38.612;2023-04-06T05:31:32;11.83;73.54
65040;HTU21D;51606;45.000;38.612;2023-04-06T05:33:58;11.97;73.45
65040;HTU21D;51606;45.000;38.612;2023-04-06T05:36:32;12.13;73.32
65040;HTU21D;51606;45.000;38.612;2023-04-06T05:39:03;12.26;73.22
65040;HTU21D;51606;45.000;38.612;2023-04-06T05:41:37;12.36;73.12
65040;HTU21D;51606;45.000;38.612;2023-04-06T05:44:03;12.47;73.06
65040;HTU21D;51606;45.000;38.612;2023-04-06T05:46:31;12.52;73.10
65040;HTU21D;51606;45.000;38.612;2023-04-06T05:48:59;12.53;73.16
65040;HTU21D;51606;45.000;38.612;2023-04-06T05:51:29;12.53;73.28
65040;HTU21D;51606;45.000;38.612;2023-04-06T05:53:56;12.49;73.44
65040;HTU21D;51606;45.000;38.612;2023-04-06T05:56:24;12.41;73.63
65040;HTU21D;51606;45.000;38.612;2023-04-06T05:58:51;12.35;73.84
65040;HTU21D;51606;45.000;38.612;2023-04-06T06:01:23;12.33;73.98
65040;HTU21D;51606;45.000;38.612;2023-04-06T06:03:50;12.34;74.05
65040;HTU21D;51606;45.000;38.612;2023-04-06T06:06:17;12.42;74.00
65040;HTU21D;51606;45.000;38.612;2023-04-06T06:09:07;12.56;73.81
65040;HTU21D;51606;45.000;38.612;2023-04-06T06:11:39;12.69;73.65
65040;HTU21D;51606;45.000;38.612;2023-04-06T06:14:07;12.81;73.49
65040;HTU21D;51606;45.000;38.612;2023-04-06T06:16:37;12.92;73.36
65040;HTU21D;51606;45.000;38.612;2023-04-06T06:19:06;13.01;73.32
65040;HTU21D;51606;45.000;38.612;2023-04-06T06:21:32;13.08;73.27
65040;HTU21D;51606;45.000;38.612;2023-04-06T06:23:59;13.16;73.24
65040;HTU21D;51606;45.000;38.612;2023-04-06T06:26:25;13.21;73.22
65040;HTU21D;51606;45.000;38.612;2023-04-06T06:28:52;13.25;73.22
65040;HTU21D;51606;45.000;38.612;2023-04-06T06:31:20;13.26;73.24
65040;HTU21D;51606;45.000;38.612;2023-04-06T06:33:49;13.24;73.32
65040;HTU21D;51606;45.000;38.612;2023-04-06T06:36:19;13.18;73.45
65040;HTU21D;51606;45.000;38.612;2023-04-06T06:38:47;13.12;73.59
65040;HTU21D;51606;45.000;38.612;2023-04-06T06:41:15;13.05;73.71
65040;HTU21D;51606;45.000;38.612;2023-04-06T06:43:42;13.01;73.83
65040;HTU21D;51606;45.000;38.612;2023-04-06T06:46:10;12.94;73.92
65040;HTU21D;51606;45.000;38.612;2023-04-06T06:48:39;12.92;73.98
65040;HTU21D;51606;45.000;38.612;2023-04-06T06:51:05;12.91;74.00
65040;HTU21D;51606;45.000;38.612;2023-04-06T06:53:32;12.89;74.01
65040;HTU21D;51606;45.000;38.612;2023-04-06T06:55:58;12.93;73.97
65040;HTU21D;51606;45.000;38.612;2023-04-06T06:58:24;12.96;73.90
65040;HTU21D;51606;45.000;38.612;2023-04-06T07:00:56;13.00;73.86
65040;HTU21D;51606;45.000;38.612;2023-04-06T07:03:23;13.04;73.77
65040;HTU21D;51606;45.000;38.612;2023-04-06T07:05:50;13.10;73.70
65040;HTU21D;51606;45.000;38.612;2023-04-06T07:08:21;13.18;73.61
65040;HTU21D;51606;45.000;38.612;2023-04-06T07:10:48;13.25;73.54
65040;HTU21D;51606;45.000;38.612;2023-04-06T07:13:15;13.36;73.42
65040;HTU21D;51606;45.000;38.612;2023-04-06T07:15:49;13.51;73.28
65040;HTU21D;51606;45.000;38.612;2023-04-06T07:18:17;13.66;73.11
65040;HTU21D;51606;45.000;38.612;2023-04-06T07:20:45;13.82;72.95
65040;HTU21D;51606;45.000;38.612;2023-04-06T07:23:11;13.97;72.80
65040;HTU21D;51606;45.000;38.612;2023-04-06T07:25:39;14.17;72.61
65040;HTU21D;51606;45.000;38.612;2023-04-06T07:28:05;14.42;72.37
65040;HTU21D;51606;45.000;38.612;2023-04-06T07:30:32;14.64;72.10
65040;HTU21D;51606;45.000;38.612;2023-04-06T07:32:59;14.80;71.97
65040;HTU21D;51606;45.000;38.612;2023-04-06T07:35:27;14.88;71.94
65040;HTU21D;51606;45.000;38.612;2023-04-06T07:37:54;14.94;71.96
65040;HTU21D;51606;45.000;38.612;2023-04-06T07:40:21;14.94;72.06
65040;HTU21D;51606;45.000;38.612;2023-04-06T07:42:49;14.93;72.12
65040;HTU21D;51606;45.000;38.612;2023-04-06T07:45:16;14.89;72.27
65040;HTU21D;51606;45.000;38.612;2023-04-06T07:47:42;14.84;72.40
65040;HTU21D;51606;45.000;38.612;2023-04-06T07:50:09;14.74;72.54
65040;HTU21D;51606;45.000;38.612;2023-04-06T07:52:38;14.60;72.71
65040;HTU21D;51606;45.000;38.612;2023-04-06T07:55:06;14.48;72.95
65040;HTU21D;51606;45.000;38.612;2023-04-06T07:57:33;14.32;73.21
65040;HTU21D;51606;45.000;38.612;2023-04-06T07:59:59;14.17;73.44
65040;HTU21D;51606;45.000;38.612;2023-04-06T08:02:26;14.03;73.62
65040;HTU21D;51606;45.000;38.612;2023-04-06T08:04:53;13.93;73.75
65040;HTU21D;51606;45.000;38.612;2023-04-06T08:07:19;13.81;73.83
65040;HTU21D;51606;45.000;38.612;2023-04-06T08:09:45;13.70;73.94
65040;HTU21D;51606;45.000;38.612;2023-04-06T08:12:11;13.60;74.03
65040;HTU21D;51606;45.000;38.612;2023-04-06T08:14:38;13.48;74.13
65040;HTU21D;51606;45.000;38.612;2023-04-06T08:17:04;13.38;74.19
65040;HTU21D;51606;45.000;38.612;2023-04-06T08:19:31;13.30;74.23
65040;HTU21D;51606;45.000;38.612;2023-04-06T08:21:57;13.25;74.22
65040;HTU21D;51606;45.000;38.612;2023-04-06T08:24:23;13.24;74.15
65040;HTU21D;51606;45.000;38.612;2023-04-06T08:26:50;13.22;74.09
65040;HTU21D;51606;45.000;38.612;2023-04-06T08:29:17;13.23;73.96
65040;HTU21D;51606;45.000;38.612;2023-04-06T08:31:43;13.29;73.86
65040;HTU21D;51606;45.000;38.612;2023-04-06T08:34:10;13.35;73.72
65040;HTU21D;51606;45.000;38.612;2023-04-06T08:36:36;13.43;73.56
65040;HTU21D;51606;45.000;38.612;2023-04-06T08:39:03;13.54;73.38
65040;HTU21D;51606;45.000;38.612;2023-04-06T08:41:29;13.68;73.17
65040;HTU21D;51606;45.000;38.612;2023-04-06T08:44:00;13.82;72.93
65040;HTU21D;51606;45.000;38.612;2023-04-06T08:46:28;13.98;72.73
65040;HTU21D;51606;45.000;38.612;2023-04-06T08:49:02;14.14;72.55
65040;HTU21D;51606;45.000;38.612;2023-04-06T08:51:29;14.27;72.39
65040;HTU21D;51606;45.000;38.612;2023-04-06T08:53:59;14.37;72.29
65040;HTU21D;51606;45.000;38.612;2023-04-06T08:56:27;14.45;72.26
65040;HTU21D;51606;45.000;38.612;2023-04-06T08:58:55;14.48;72.27
65040;HTU21D;51606;45.000;38.612;2023-04-06T09:01:25;14.49;72.30
65040;HTU21D;51606;45.000;38.612;2023-04-06T09:03:56;14.50;72.32
65040;HTU21D;51606;45.000;38.612;2023-04-06T09:06:22;14.44;72.41
65040;HTU21D;51606;45.000;38.612;2023-04-06T09:08:48;14.36;72.54
65040;HTU21D;51606;45.000;38.612;2023-04-06T09:11:15;14.24;72.70
65040;HTU21D;51606;45.000;38.612;2023-04-06T09:13:49;14.14;72.93
65040;HTU21D;51606;45.000;38.612;2023-04-06T09:16:16;14.01;73.08
65040;HTU21D;51606;45.000;38.612;2023-04-06T09:18:43;13.96;73.22
65040;HTU21D;51606;45.000;38.612;2023-04-06T09:21:10;13.92;73.22
65040;HTU21D;51606;45.000;38.612;2023-04-06T09:23:38;13.96;73.18
65040;HTU21D;51606;45.000;38.612;2023-04-06T09:28:47;14.15;72.83
65040;HTU21D;51606;45.000;38.612;2023-04-06T09:31:15;14.35;72.53
65040;HTU21D;51606;45.000;38.612;2023-04-06T09:33:43;14.50;72.24
65040;HTU21D;51606;45.000;38.612;2023-04-06T09:36:11;14.64;72.03
65040;HTU21D;51606;45.000;38.612;2023-04-06T09:38:38;14.75;71.90
65040;HTU21D;51606;45.000;38.612;2023-04-06T09:41:05;14.87;71.77
65040;HTU21D;51606;45.000;38.612;2023-04-06T09:43:31;14.99;71.64
65040;HTU21D;51606;45.000;38.612;2023-04-06T09:45:59;15.09;71.52
65040;HTU21D;51606;45.000;38.612;2023-04-06T09:48:27;15.21;71.42
65040;HTU21D;51606;45.000;38.612;2023-04-06T09:50:59;15.27;71.27
65040;HTU21D;51606;45.000;38.612;2023-04-06T09:53:30;15.28;71.30
65040;HTU21D;51606;45.000;38.612;2023-04-06T09:56:02;15.28;71.33
65040;HTU21D;51606;45.000;38.612;2023-04-06T09:58:34;15.19;71.44
65040;HTU21D;51606;45.000;38.612;2023-04-06T10:01:11;15.12;71.59
65040;HTU21D;51606;45.000;38.612;2023-04-06T10:03:45;15.01;71.73
65040;HTU21D;51606;45.000;38.612;2023-04-06T10:06:15;14.92;71.87
65040;HTU21D;51606;45.000;38.612;2023-04-06T10:08:47;14.83;72.01
65040;HTU21D;51606;45.000;38.612;2023-04-06T10:11:16;14.77;72.09
65040;HTU21D;51606;45.000;38.612;2023-04-06T10:13:43;14.79;72.03
65040;HTU21D;51606;45.000;38.612;2023-04-06T10:16:13;14.81;71.94
65040;HTU21D;51606;45.000;38.612;2023-04-06T10:18:46;14.80;71.89
65040;HTU21D;51606;45.000;38.612;2023-04-06T10:21:20;14.78;71.89
65040;HTU21D;51606;45.000;38.612;2023-04-06T10:24:02;14.73;71.90
65040;HTU21D;51606;45.000;38.612;2023-04-06T10:26:33;14.73;71.90
65040;HTU21D;51606;45.000;38.612;2023-04-06T10:29:03;14.75;71.82
65040;HTU21D;51606;45.000;38.612;2023-04-06T10:31:30;14.78;71.77
65040;HTU21D;51606;45.000;38.612;2023-04-06T10:34:01;14.82;71.67
65040;HTU21D;51606;45.000;38.612;2023-04-06T10:36:32;14.85;71.58
65040;HTU21D;51606;45.000;38.612;2023-04-06T10:39:01;14.87;71.52
65040;HTU21D;51606;45.000;38.612;2023-04-06T10:41:45;14.92;71.43
65040;HTU21D;51606;45.000;38.612;2023-04-06T10:44:41;14.94;71.38
65040;HTU21D;51606;45.000;38.612;2023-04-06T10:47:16;14.96;71.35
65040;HTU21D;51606;45.000;38.612;2023-04-06T10:49:43;14.97;71.30
65040;HTU21D;51606;45.000;38.612;2023-04-06T10:52:10;14.99;71.28
65040;HTU21D;51606;45.000;38.612;2023-04-06T10:54:41;14.99;71.26
65040;HTU21D;51606;45.000;38.612;2023-04-06T10:57:09;14.98;71.26
65040;HTU21D;51606;45.000;38.612;2023-04-06T10:59:35;14.96;71.29
65040;HTU21D;51606;45.000;38.612;2023-04-06T11:02:02;14.96;71.31
65040;HTU21D;51606;45.000;38.612;2023-04-06T11:04:28;14.87;71.36
65040;HTU21D;51606;45.000;38.612;2023-04-06T11:06:56;14.77;71.49
65040;HTU21D;51606;45.000;38.612;2023-04-06T11:09:25;14.66;71.63
65040;HTU21D;51606;45.000;38.612;2023-04-06T11:11:52;14.58;71.77
65040;HTU21D;51606;45.000;38.612;2023-04-06T11:14:19;14.53;71.83
65040;HTU21D;51606;45.000;38.612;2023-04-06T11:16:47;14.48;71.84
65040;HTU21D;51606;45.000;38.612;2023-04-06T11:19:16;14.43;71.86
65040;HTU21D;51606;45.000;38.612;2023-04-06T11:21:44;14.40;71.85
65040;HTU21D;51606;45.000;38.612;2023-04-06T11:24:20;14.39;71.84
65040;HTU21D;51606;45.000;38.612;2023-04-06T11:26:57;14.40;71.75
65040;HTU21D;51606;45.000;38.612;2023-04-06T11:29:29;14.37;71.71
65040;HTU21D;51606;45.000;38.612;2023-04-06T11:32:03;14.34;71.73
65040;HTU21D;51606;45.000;38.612;2023-04-06T11:34:34;14.34;71.72
65040;HTU21D;51606;45.000;38.612;2023-04-06T11:37:12;14.37;71.64
65040;HTU21D;51606;45.000;38.612;2023-04-06T11:42:12;14.42;71.50
65040;HTU21D;51606;45.000;38.612;2023-04-06T11:44:39;14.45;71.45
65040;HTU21D;51606;45.000;38.612;2023-04-06T11:47:07;14.49;71.38
65040;HTU21D;51606;45.000;38.612;2023-04-06T11:49:37;14.53;71.31
65040;HTU21D;51606;45.000;38.612;2023-04-06T11:52:15;14.54;71.31
65040;HTU21D;51606;45.000;38.612;2023-04-06T11:54:42;14.57;71.29
65040;HTU21D;51606;45.000;38.612;2023-04-06T11:57:08;14.59;71.23
65040;HTU21D;51606;45.000;38.612;2023-04-06T11:59:35;14.65;71.22
65040;HTU21D;51606;45.000;38.612;2023-04-06T12:02:02;14.68;71.19
65040;HTU21D;51606;45.000;38.612;2023-04-06T12:04:29;14.71;71.14
65040;HTU21D;51606;45.000;38.612;2023-04-06T12:06:56;14.69;71.16
65040;HTU21D;51606;45.000;38.612;2023-04-06T12:09:23;14.67;71.22
65040;HTU21D;51606;45.000;38.612;2023-04-06T12:11:49;14.64;71.31
65040;HTU21D;51606;45.000;38.612;2023-04-06T12:14:16;14.57;71.41
65040;HTU21D;51606;45.000;38.612;2023-04-06T12:16:42;14.51;71.49
65040;HTU21D;51606;45.000;38.612;2023-04-06T12:19:09;14.47;71.56
65040;HTU21D;51606;45.000;38.612;2023-04-06T12:21:36;14.44;71.62
65040;HTU21D;51606;45.000;38.612;2023-04-06T12:24:06;14.43;71.61
65040;HTU21D;51606;45.000;38.612;2023-04-06T12:26:33;14.41;71.62
65040;HTU21D;51606;45.000;38.612;2023-04-06T12:29:00;14.33;71.74
65040;HTU21D;51606;45.000;38.612;2023-04-06T12:31:34;14.26;71.87
65040;HTU21D;51606;45.000;38.612;2023-04-06T12:34:02;14.25;71.90
65040;HTU21D;51606;45.000;38.612;2023-04-06T12:36:29;14.25;71.92
65040;HTU21D;51606;45.000;38.612;2023-04-06T12:38:55;14.23;71.96
65040;HTU21D;51606;45.000;38.612;2023-04-06T12:41:22;14.22;71.95
65040;HTU21D;51606;45.000;38.612;2023-04-06T12:43:48;14.18;71.95
65040;HTU21D;51606;45.000;38.612;2023-04-06T12:46:15;14.11;71.94
65040;HTU21D;51606;45.000;38.612;2023-04-06T12:48:42;14.07;71.99
65040;HTU21D;51606;45.000;38.612;2023-04-06T12:51:08;14.05;72.00
65040;HTU21D;51606;45.000;38.612;2023-04-06T12:53:35;14.01;72.00
65040;HTU21D;51606;45.000;38.612;2023-04-06T12:56:02;13.99;72.03
65040;HTU21D;51606;45.000;38.612;2023-04-06T12:58:37;13.98;72.02
65040;HTU21D;51606;45.000;38.612;2023-04-06T13:01:06;13.98;72.00
65040;HTU21D;51606;45.000;38.612;2023-04-06T13:03:33;14.01;71.92
65040;HTU21D;51606;45.000;38.612;2023-04-06T13:06:00;14.06;71.87
65040;HTU21D;51606;45.000;38.612;2023-04-06T13:08:27;14.08;71.80
65040;HTU21D;51606;45.000;38.612;2023-04-06T13:10:54;14.08;71.79
65040;HTU21D;51606;45.000;38.612;2023-04-06T13:13:28;14.07;71.78
65040;HTU21D;51606;45.000;38.612;2023-04-06T13:16:00;14.07;71.79
65040;HTU21D;51606;45.000;38.612;2023-04-06T13:18:28;14.05;71.81
65040;HTU21D;51606;45.000;38.612;2023-04-06T13:20:55;14.07;71.77
65040;HTU21D;51606;45.000;38.612;2023-04-06T13:23:25;14.04;71.79
65040;HTU21D;51606;45.000;38.612;2023-04-06T13:26:01;13.98;71.87
65040;HTU21D;51606;45.000;38.612;2023-04-06T13:28:30;13.91;71.95
65040;HTU21D;51606;45.000;38.612;2023-04-06T13:30:58;13.84;72.03
65040;HTU21D;51606;45.000;38.612;2023-04-06T13:33:25;13.73;72.18
65040;HTU21D;51606;45.000;38.612;2023-04-06T13:35:52;13.59;72.45
65040;HTU21D;51606;45.000;38.612;2023-04-06T13:38:18;13.49;72.65
65040;HTU21D;51606;45.000;38.612;2023-04-06T13:40:45;13.43;72.74
65040;HTU21D;51606;45.000;38.612;2023-04-06T13:43:11;13.34;72.77
65040;HTU21D;51606;45.000;38.612;2023-04-06T13:45:38;13.25;72.87
65040;HTU21D;51606;45.000;38.612;2023-04-06T13:48:05;13.12;73.08
65040;HTU21D;51606;45.000;38.612;2023-04-06T13:50:32;13.06;73.20
65040;HTU21D;51606;45.000;38.612;2023-04-06T13:52:58;13.01;73.26
65040;HTU21D;51606;45.000;38.612;2023-04-06T13:55:25;12.92;73.32
65040;HTU21D;51606;45.000;38.612;2023-04-06T13:57:52;12.84;73.42
65040;HTU21D;51606;45.000;38.612;2023-04-06T14:00:18;12.73;73.52
65040;HTU21D;51606;45.000;38.612;2023-04-06T14:02:45;12.67;73.60
65040;HTU21D;51606;45.000;38.612;2023-04-06T14:05:12;12.59;73.66
65040;HTU21D;51606;45.000;38.612;2023-04-06T14:07:38;12.53;73.67
65040;HTU21D;51606;45.000;38.612;2023-04-06T14:10:05;12.49;73.80
65040;HTU21D;51606;45.000;38.612;2023-04-06T14:12:41;12.43;73.77
65040;HTU21D;51606;45.000;38.612;2023-04-06T14:15:11;12.35;73.83
65040;HTU21D;51606;45.000;38.612;2023-04-06T14:17:38;12.28;73.88
65040;HTU21D;51606;45.000;38.612;2023-04-06T14:20:08;12.22;73.93
65040;HTU21D;51606;45.000;38.612;2023-04-06T14:22:41;12.18;73.93
65040;HTU21D;51606;45.000;38.612;2023-04-06T14:25:08;0.00;0.00
65040;HTU21D;51606;45.000;38.612;2023-04-06T14:27:35;12.17;73.93
65040;HTU21D;51606;45.000;38.612;2023-04-06T14:30:02;12.15;73.99
65040;HTU21D;51606;45.000;38.612;2023-04-06T14:32:28;12.14;73.93
65040;HTU21D;51606;45.000;38.612;2023-04-06T14:34:55;0.00;73.98
65040;HTU21D;51606;45.000;38.612;2023-04-06T14:37:21;12.16;73.90
65040;HTU21D;51606;45.000;38.612;2023-04-06T14:39:48;12.16;73.90
65040;HTU21D;51606;45.000;38.612;2023-04-06T14:42:14;12.16;73.98
65040;HTU21D;51606;45.000;38.612;2023-04-06T14:44:40;12.15;73.91
65040;HTU21D;51606;45.000;38.612;2023-04-06T14:47:09;12.17;73.87
65040;HTU21D;51606;45.000;38.612;2023-04-06T14:49:36;12.17;73.88
65040;HTU21D;51606;45.000;38.612;2023-04-06T14:52:02;12.17;73.86
65040;HTU21D;51606;45.000;38.612;2023-04-06T14:54:29;12.17;73.86
65040;HTU21D;51606;45.000;38.612;2023-04-06T14:56:56;12.15;73.86
65040;HTU21D;51606;45.000;38.612;2023-04-06T14:59:22;12.13;73.89
65040;HTU21D;51606;45.000;38.612;2023-04-06T15:01:49;12.07;73.95
65040;HTU21D;51606;45.000;38.612;2023-04-06T15:04:16;12.06;73.99
65040;HTU21D;51606;45.000;38.612;2023-04-06T15:06:42;12.01;74.14
65040;HTU21D;51606;45.000;38.612;2023-04-06T15:09:08;11.97;74.21
65040;HTU21D;51606;45.000;38.612;2023-04-06T15:11:35;11.90;74.25
65040;HTU21D;51606;45.000;38.612;2023-04-06T15:14:01;11.85;74.31
65040;HTU21D;51606;45.000;38.612;2023-04-06T15:16:28;11.82;74.28
65040;HTU21D;51606;45.000;38.612;2023-04-06T15:19:00;11.78;74.32
65040;HTU21D;51606;45.000;38.612;2023-04-06T15:21:27;11.73;74.36
65040;HTU21D;51606;45.000;38.612;2023-04-06T15:23:54;11.70;74.38
65040;HTU21D;51606;45.000;38.612;2023-04-06T15:26:21;11.66;74.42
65040;HTU21D;51606;45.000;38.612;2023-04-06T15:28:47;11.60;74.44
65040;HTU21D;51606;45.000;38.612;2023-04-06T15:31:19;11.56;74.52
65040;HTU21D;51606;45.000;38.612;2023-04-06T15:33:48;11.51;74.54
65040;HTU21D;51606;45.000;38.612;2023-04-06T15:36:26;11.48;74.58
65040;HTU21D;51606;45.000;38.612;2023-04-06T15:38:55;11.43;74.59
65040;HTU21D;51606;45.000;38.612;2023-04-06T15:41:21;11.41;74.60
65040;HTU21D;51606;45.000;38.612;2023-04-06T15:43:48;11.39;74.60
65040;HTU21D;51606;45.000;38.612;2023-04-06T15:46:18;11.34;74.60
65040;HTU21D;51606;45.000;38.612;2023-04-06T15:48:45;11.32;74.66
65040;HTU21D;51606;45.000;38.612;2023-04-06T15:51:12;11.30;74.65
65040;HTU21D;51606;45.000;38.612;2023-04-06T15:53:38;11.28;74.68
65040;HTU21D;51606;45.000;38.612;2023-04-06T15:56:05;11.25;74.69
65040;HTU21D;51606;45.000;38.612;2023-04-06T15:58:34;11.22;74.67
65040;HTU21D;51606;45.000;38.612;2023-04-06T16:01:12;11.19;74.68
65040;HTU21D;51606;45.000;38.612;2023-04-06T16:03:39;11.15;74.65
65040;HTU21D;51606;45.000;38.612;2023-04-06T16:06:06;11.14;74.64
65040;HTU21D;51606;45.000;38.612;2023-04-06T16:08:33;11.13;74.64
65040;HTU21D;51606;45.000;38.612;2023-04-06T16:10:59;11.11;74.63
65040;HTU21D;51606;45.000;38.612;2023-04-06T16:13:26;11.10;74.62
65040;HTU21D;51606;45.000;38.612;2023-04-06T16:15:52;11.10;74.60
65040;HTU21D;51606;45.000;38.612;2023-04-06T16:18:19;11.07;74.60
65040;HTU21D;51606;45.000;38.612;2023-04-06T16:20:45;11.05;74.60
65040;HTU21D;51606;45.000;38.612;2023-04-06T16:23:11;11.05;74.60
65040;HTU21D;51606;45.000;38.612;2023-04-06T16:25:38;11.03;74.62
65040;HTU21D;51606;45.000;38.612;2023-04-06T16:28:04;11.02;74.61
65040;HTU21D;51606;45.000;38.612;2023-04-06T16:30:35;11.00;74.63
65040;HTU21D;51606;45.000;38.612;2023-04-06T16:33:01;10.97;74.65
65040;HTU21D;51606;45.000;38.612;2023-04-06T16:35:28;10.95;74.70
65040;HTU21D;51606;45.000;38.612;2023-04-06T16:37:54;10.95;74.78
65040;HTU21D;51606;45.000;38.612;2023-04-06T16:40:20;10.93;74.76
65040;HTU21D;51606;45.000;38.612;2023-04-06T16:42:47;10.92;74.76
65040;HTU21D;51606;45.000;38.612;2023-04-06T16:45:48;10.94;74.79
65040;HTU21D;51606;45.000;38.612;2023-04-06T16:48:14;10.90;74.84
65040;HTU21D;51606;45.000;38.612;2023-04-06T16:50:41;10.90;74.84
65040;HTU21D;51606;45.000;38.612;2023-04-06T16:53:07;10.88;74.82
65040;HTU21D;51606;45.000;38.612;2023-04-06T16:55:38;10.87;74.83
65040;HTU21D;51606;45.000;38.612;2023-04-06T16:58:05;10.86;74.88
65040;HTU21D;51606;45.000;38.612;2023-04-06T17:00:32;10.84;74.92
65040;HTU21D;51606;45.000;38.612;2023-04-06T17:02:58;10.83;74.97
65040;HTU21D;51606;45.000;38.612;2023-04-06T17:05:24;10.83;74.95
65040;HTU21D;51606;45.000;38.612;2023-04-06T17:07:52;10.81;74.94
65040;HTU21D;51606;45.000;38.612;2023-04-06T17:10:19;10.79;74.95
65040;HTU21D;51606;45.000;38.612;2023-04-06T17:12:48;10.78;74.96
65040;HTU21D;51606;45.000;38.612;2023-04-06T17:15:15;10.77;74.97
65040;HTU21D;51606;45.000;38.612;2023-04-06T17:17:41;10.74;74.99
65040;HTU21D;51606;45.000;38.612;2023-04-06T17:20:08;10.75;75.00
65040;HTU21D;51606;45.000;38.612;2023-04-06T17:22:34;10.74;74.95
65040;HTU21D;51606;45.000;38.612;2023-04-06T17:25:01;10.73;74.92
65040;HTU21D;51606;45.000;38.612;2023-04-06T17:27:28;10.75;74.92
65040;HTU21D;51606;45.000;38.612;2023-04-06T17:29:54;10.73;74.92
65040;HTU21D;51606;45.000;38.612;2023-04-06T17:32:20;10.73;74.95
65040;HTU21D;51606;45.000;38.612;2023-04-06T17:34:47;10.72;74.95
65040;HTU21D;51606;45.000;38.612;2023-04-06T17:37:14;10.72;74.97
65040;HTU21D;51606;45.000;38.612;2023-04-06T17:39:40;10.71;74.98
65040;HTU21D;51606;45.000;38.612;2023-04-06T17:42:07;10.69;74.99
65040;HTU21D;51606;45.000;38.612;2023-04-06T17:44:33;10.70;75.02
65040;HTU21D;51606;45.000;38.612;2023-04-06T17:46:59;10.69;75.05
65040;HTU21D;51606;45.000;38.612;2023-04-06T17:49:26;10.67;75.07
65040;HTU21D;51606;45.000;38.612;2023-04-06T17:51:52;10.67;75.09
65040;HTU21D;51606;45.000;38.612;2023-04-06T17:54:19;10.68;75.09
65040;HTU21D;51606;45.000;38.612;2023-04-06T17:56:45;10.68;75.10
65040;HTU21D;51606;45.000;38.612;2023-04-06T17:59:14;10.67;75.11
65040;HTU21D;51606;45.000;38.612;2023-04-06T18:01:40;10.66;75.12
65040;HTU21D;51606;45.000;38.612;2023-04-06T18:04:07;10.65;75.12
65040;HTU21D;51606;45.000;38.612;2023-04-06T18:06:33;10.65;75.15
65040;HTU21D;51606;45.000;38.612;2023-04-06T18:08:59;10.65;75.15
65040;HTU21D;51606;45.000;38.612;2023-04-06T18:11:26;10.64;75.16
65040;HTU21D;51606;45.000;38.612;2023-04-06T18:13:56;10.62;75.18
65040;HTU21D;51606;45.000;38.612;2023-04-06T18:16:22;10.62;75.18
65040;HTU21D;51606;45.000;38.612;2023-04-06T18:18:49;10.63;75.21
65040;HTU21D;51606;45.000;38.612;2023-04-06T18:21:16;10.60;75.20
65040;HTU21D;51606;45.000;38.612;2023-04-06T18:23:42;10.62;75.21
65040;HTU21D;51606;45.000;38.612;2023-04-06T18:26:17;10.62;75.28
65040;HTU21D;51606;45.000;38.612;2023-04-06T18:28:44;10.60;75.28
65040;HTU21D;51606;45.000;38.612;2023-04-06T18:31:11;10.59;75.25
65040;HTU21D;51606;45.000;38.612;2023-04-06T18:33:38;10.58;75.30
65040;HTU21D;51606;45.000;38.612;2023-04-06T18:36:04;10.57;75.37
65040;HTU21D;51606;45.000;38.612;2023-04-06T18:38:31;10.55;75.42
